Time;durP1;ratioP1;P1;durP2;ratioP2;P2;SDS_P1;SDS_P2;PMS_P1;PMS_P2;Temp;Humidity;BMP_temperature;BMP_pressure;BME280_temperature;BME280_humidity;BME280_pressure;Samples;Min_cycle;Max_cycle;Signal;HPM_P1;HPM_P2
2022/06/21 00:00:20;;;;;;;5.53;4.00;;;24.80;99.90;;;;;;4951557;28;20043;-79
2022/06/21 00:02:46;;;;;;;7.93;4.18;;;24.70;99.90;;;;;;4937455;29;20031;-79
2022/06/21 00:05:20;;;;;;;6.07;4.10;;;24.60;99.90;;;;;;4948628;28;20496;-79
2022/06/21 00:07:46;;;;;;;4.65;4.10;;;24.50;99.90;;;;;;4952583;29;20035;-79
2022/06/21 00:10:15;;;;;;;6.50;4.18;;;24.50;99.90;;;;;;4952599;29;20484;-79
2022/06/21 00:12:41;;;;;;;6.72;4.20;;;24.60;99.90;;;;;;4952427;29;20480;-79
2022/06/21 00:15:07;;;;;;;5.03;4.25;;;24.60;99.90;;;;;;4950757;29;20050;-79
2022/06/21 00:17:33;;;;;;;5.05;4.10;;;24.60;99.90;;;;;;4952127;29;20358;-79
2022/06/21 00:19:59;;;;;;;5.60;4.35;;;24.50;99.90;;;;;;4954551;29;20034;-79
2022/06/21 00:22:24;;;;;;;5.85;4.43;;;24.60;99.90;;;;;;4952233;29;20051;-79
2022/06/21 00:24:51;;;;;;;6.75;3.95;;;24.50;99.90;;;;;;4952559;29;20024;-79
2022/06/21 00:27:20;;;;;;;5.32;4.30;;;24.50;99.90;;;;;;4952596;29;20551;-79
2022/06/21 00:29:46;;;;;;;4.22;3.85;;;24.50;99.90;;;;;;4938311;28;20040;-79
2022/06/21 00:32:18;;;;;;;4.88;4.40;;;24.50;99.90;;;;;;4949874;29;20419;-79
2022/06/21 00:34:46;;;;;;;4.70;4.20;;;24.40;99.90;;;;;;4951981;29;20047;-79
2022/06/21 00:37:21;;;;;;;9.52;4.10;;;24.40;99.90;;;;;;4952352;29;20058;-79
2022/06/21 00:39:47;;;;;;;4.25;3.85;;;24.30;99.90;;;;;;4952186;29;20031;-79
2022/06/21 00:42:36;;;;;;;4.68;4.28;;;24.20;99.90;;;;;;4952378;29;20121;-79
2022/06/21 00:45:04;;;;;;;4.70;4.05;;;24.20;99.90;;;;;;4941825;28;20118;-79
2022/06/21 00:47:44;;;;;;;4.50;4.10;;;24.30;99.90;;;;;;4952508;29;20464;-79
2022/06/21 00:50:19;;;;;;;7.13;4.38;;;24.20;99.90;;;;;;4953799;29;20025;-79
2022/06/21 00:52:53;;;;;;;5.18;4.38;;;24.20;99.90;;;;;;4949147;28;20039;-79
2022/06/21 00:55:40;;;;;;;6.43;4.20;;;24.30;99.90;;;;;;4952203;29;20038;-79
2022/06/21 00:58:10;;;;;;;4.72;4.28;;;24.30;99.90;;;;;;4951897;29;20042;-79
2022/06/21 01:00:49;;;;;;;7.50;4.25;;;24.30;99.90;;;;;;4950363;29;20023;-79
2022/06/21 01:03:21;;;;;;;4.60;4.20;;;24.20;99.90;;;;;;4951898;28;20111;-79
2022/06/21 01:05:47;;;;;;;7.45;4.40;;;24.10;99.90;;;;;;4936995;29;20027;-79
2022/06/21 01:08:24;;;;;;;5.22;4.50;;;24.20;99.90;;;;;;4950237;28;20389;-79
2022/06/21 01:10:54;;;;;;;6.57;4.10;;;24.10;99.90;;;;;;4952739;29;20035;-79
2022/06/21 01:13:26;;;;;;;7.32;4.40;;;24.10;99.90;;;;;;4951800;29;20435;-79
2022/06/21 01:15:53;;;;;;;6.03;4.28;;;24.10;99.90;;;;;;4950664;28;20031;-79
2022/06/21 01:18:24;;;;;;;4.70;4.28;;;24.00;99.90;;;;;;4951866;29;20019;-79
2022/06/21 01:20:55;;;;;;;4.70;4.10;;;24.00;99.90;;;;;;4937417;29;20028;-79
2022/06/21 01:23:29;;;;;;;4.97;4.40;;;24.00;99.90;;;;;;4953174;29;20492;-79
2022/06/21 01:25:55;;;;;;;5.35;4.68;;;24.00;99.90;;;;;;4952925;29;20485;-79
2022/06/21 01:28:21;;;;;;;5.85;4.22;;;23.80;99.90;;;;;;4950334;29;20046;-79
2022/06/21 01:30:51;;;;;;;6.00;4.50;;;23.80;99.90;;;;;;4951310;29;20118;-79
2022/06/21 01:33:24;;;;;;;7.10;4.50;;;23.90;99.90;;;;;;4951541;28;20046;-79
2022/06/21 01:35:54;;;;;;;5.78;4.18;;;23.80;99.90;;;;;;4937693;29;20031;-79
2022/06/21 01:38:24;;;;;;;4.88;4.40;;;23.80;99.90;;;;;;4953007;28;20028;-79
2022/06/21 01:41:00;;;;;;;5.47;4.28;;;23.80;99.90;;;;;;4952466;29;20046;-79
2022/06/21 01:43:28;;;;;;;6.32;4.40;;;23.70;99.90;;;;;;4949743;29;20472;-79
2022/06/21 01:46:05;;;;;;;6.78;4.53;;;23.80;99.90;;;;;;4951417;29;20032;-79
2022/06/21 01:48:47;;;;;;;4.80;4.28;;;23.80;99.90;;;;;;4951528;29;20027;-80
2022/06/21 01:51:19;;;;;;;9.00;4.50;;;23.80;99.90;;;;;;4951645;29;20403;-79
2022/06/21 01:53:45;;;;;;;8.40;4.35;;;23.80;99.90;;;;;;4936271;29;20038;-78
2022/06/21 01:56:18;;;;;;;7.30;4.65;;;23.70;99.90;;;;;;4953829;29;20035;-79
2022/06/21 01:58:48;;;;;;;7.47;4.35;;;23.70;99.90;;;;;;4948296;29;20034;-79
2022/06/21 02:01:35;;;;;;;4.65;4.20;;;23.70;99.90;;;;;;4927338;29;20447;-79
2022/06/21 02:04:03;;;;;;;7.32;4.32;;;23.60;99.90;;;;;;4951238;28;20050;-79
2022/06/21 02:06:32;;;;;;;5.70;4.10;;;23.60;99.90;;;;;;4951200;29;20050;-79
2022/06/21 02:09:03;;;;;;;5.57;4.70;;;23.70;99.90;;;;;;4951458;29;20038;-79
2022/06/21 02:11:35;;;;;;;5.40;4.90;;;23.70;99.90;;;;;;4951915;28;20373;-79
2022/06/21 02:16:51;;;;;;;5.28;4.30;;;23.40;99.90;;;;;;4955556;29;20050;-79
2022/06/21 02:19:45;;;;;;;5.35;4.70;;;23.50;99.90;;;;;;4953523;29;20031;-79
2022/06/21 02:22:19;;;;;;;7.15;4.55;;;23.40;99.90;;;;;;4951736;28;20070;-79
2022/06/21 02:24:45;;;;;;;6.80;4.88;;;23.50;99.90;;;;;;4954524;29;20507;-79
2022/06/21 02:27:14;;;;;;;7.57;4.53;;;23.40;99.90;;;;;;4937098;29;20599;-79
2022/06/21 02:29:43;;;;;;;6.32;4.60;;;23.50;99.90;;;;;;4952904;29;20035;-79
2022/06/21 02:32:28;;;;;;;8.32;4.50;;;23.40;99.90;;;;;;4955517;29;20118;-79
2022/06/21 02:34:58;;;;;;;7.45;4.60;;;23.40;99.90;;;;;;4956031;29;20102;-79
2022/06/21 02:37:25;;;;;;;5.95;4.70;;;23.30;99.90;;;;;;4954187;29;20027;-79
2022/06/21 02:39:51;;;;;;;7.43;5.10;;;23.30;99.90;;;;;;4954544;29;20023;-79
2022/06/21 02:42:22;;;;;;;6.53;4.78;;;23.30;99.90;;;;;;4954226;28;20034;-79
2022/06/21 02:44:53;;;;;;;5.85;4.47;;;23.30;99.90;;;;;;4950871;28;20052;-79
2022/06/21 02:47:28;;;;;;;6.28;4.57;;;23.20;99.90;;;;;;4955376;29;20116;-79
2022/06/21 02:50:01;;;;;;;5.13;4.53;;;23.00;99.90;;;;;;4956011;29;20038;-79
2022/06/21 02:52:37;;;;;;;6.80;5.13;;;22.90;99.90;;;;;;4954033;29;20030;-79
2022/06/21 02:55:28;;;;;;;6.85;4.93;;;22.60;99.90;;;;;;4932882;29;20118;-79
2022/06/21 02:58:08;;;;;;;5.35;4.78;;;22.50;99.90;;;;;;4939093;28;20485;-79
2022/06/21 03:00:34;;;;;;;8.38;4.97;;;22.30;99.90;;;;;;4953822;29;20365;-79
2022/06/21 03:03:05;;;;;;;5.90;5.25;;;22.00;99.90;;;;;;4953973;29;20536;-79
2022/06/21 03:05:33;;;;;;;5.97;4.65;;;21.90;99.90;;;;;;4953741;29;20117;-79
2022/06/21 03:08:03;;;;;;;5.35;4.82;;;21.90;99.90;;;;;;4938617;29;20035;-79
2022/06/21 03:10:34;;;;;;;7.68;5.32;;;21.90;99.90;;;;;;4954202;29;20042;-79
2022/06/21 03:13:09;;;;;;;9.25;5.55;;;21.80;99.90;;;;;;4952622;28;20582;-79
2022/06/21 03:15:36;;;;;;;5.45;4.95;;;21.70;99.90;;;;;;4953552;29;20050;-79
2022/06/21 03:18:07;;;;;;;7.10;5.22;;;21.70;99.90;;;;;;4953499;29;20485;-78
2022/06/21 03:20:33;;;;;;;7.10;4.97;;;21.70;99.90;;;;;;4952419;29;20102;-79
2022/06/21 03:23:00;;;;;;;6.15;5.30;;;21.70;99.90;;;;;;4955491;29;20050;-79
2022/06/21 03:25:32;;;;;;;5.72;5.18;;;21.80;99.90;;;;;;4953028;29;20407;-79
2022/06/21 03:28:00;;;;;;;8.27;4.78;;;21.90;99.90;;;;;;4951055;28;20489;-79
2022/06/21 03:30:35;;;;;;;5.85;5.07;;;22.00;99.90;;;;;;4953452;29;20046;-79
2022/06/21 03:33:03;;;;;;;7.03;5.15;;;22.00;99.90;;;;;;4953475;29;20035;-79
2022/06/21 03:35:33;;;;;;;5.72;5.10;;;22.10;99.90;;;;;;4953531;28;20035;-79
2022/06/21 03:37:59;;;;;;;6.55;5.53;;;22.10;99.90;;;;;;4954350;29;20023;-79
2022/06/21 03:43:21;;;;;;;6.70;5.43;;;22.10;99.90;;;;;;4952348;29;20066;-78
2022/06/21 03:45:49;;;;;;;6.28;5.13;;;22.10;99.90;;;;;;4953015;29;20082;-79
2022/06/21 03:48:36;;;;;;;6.40;5.38;;;22.00;99.90;;;;;;4953262;29;20171;-79
2022/06/21 03:51:31;;;;;;;5.70;4.95;;;21.90;99.90;;;;;;4924029;29;20028;-79
2022/06/21 03:54:24;;;;;;;6.80;5.03;;;21.90;99.90;;;;;;4858974;29;20056;-79
2022/06/21 03:57:01;;;;;;;6.43;5.00;;;21.90;99.90;;;;;;4828271;29;20097;-79
2022/06/21 03:59:43;;;;;;;5.53;5.03;;;21.90;99.90;;;;;;4858515;29;20049;-79
2022/06/21 04:02:09;;;;;;;6.25;5.03;;;21.90;99.90;;;;;;4862219;29;20069;-79
2022/06/21 04:05:03;;;;;;;7.50;5.30;;;22.00;99.90;;;;;;4862195;29;20098;-79
2022/06/21 04:07:44;;;;;;;5.60;4.93;;;21.90;99.90;;;;;;4861915;29;20490;-79
2022/06/21 04:10:25;;;;;;;7.70;5.00;;;21.90;99.90;;;;;;4861720;29;20058;-78
2022/06/21 04:12:58;;;;;;;6.32;5.20;;;21.90;99.90;;;;;;4859440;29;20483;-79
2022/06/21 04:15:41;;;;;;;9.13;5.20;;;22.00;99.90;;;;;;4864737;29;20032;-79
2022/06/21 04:18:19;;;;;;;6.22;5.00;;;22.00;99.90;;;;;;4860586;29;20066;-79
2022/06/21 04:21:00;;;;;;;6.95;5.43;;;22.10;99.90;;;;;;4857915;29;20037;-79
2022/06/21 04:24:07;;;;;;;10.48;5.78;;;22.20;99.90;;;;;;4869773;29;20041;-79
2022/06/21 04:26:47;;;;;;;6.38;4.63;;;22.30;99.90;;;;;;4801624;29;20496;-79
2022/06/21 04:29:27;;;;;;;5.60;4.88;;;22.30;99.90;;;;;;4800470;29;20051;-77
2022/06/21 04:32:04;;;;;;;6.10;4.70;;;22.30;99.90;;;;;;4875304;29;20507;-78
2022/06/21 04:34:39;;;;;;;5.22;4.72;;;22.40;99.90;;;;;;4875889;29;20045;-79
2022/06/21 04:37:23;;;;;;;8.10;4.65;;;22.50;99.90;;;;;;4875618;29;20036;-78
2022/06/21 04:40:06;;;;;;;6.35;4.90;;;22.40;99.90;;;;;;4875576;29;20117;-79
2022/06/21 04:42:56;;;;;;;6.93;5.57;;;22.40;99.90;;;;;;4874355;29;20145;-79
2022/06/21 04:45:28;;;;;;;7.05;5.43;;;22.50;99.90;;;;;;4875999;29;20040;-79
2022/06/21 04:48:03;;;;;;;10.10;5.05;;;22.60;99.90;;;;;;4875630;29;20045;-79
2022/06/21 04:50:31;;;;;;;6.28;4.95;;;22.60;99.90;;;;;;4875958;29;20037;-79
2022/06/21 04:53:22;;;;;;;5.93;5.30;;;22.70;99.90;;;;;;4873882;29;20025;-78
2022/06/21 04:55:53;;;;;;;5.75;4.80;;;22.80;99.90;;;;;;4875190;29;20037;-79
2022/06/21 04:58:19;;;;;;;8.05;5.13;;;22.80;99.90;;;;;;4874363;29;20029;-79
2022/06/21 05:00:44;;;;;;;7.43;5.13;;;23.00;99.90;;;;;;4922060;29;20070;-79
2022/06/21 05:03:25;;;;;;;9.48;5.15;;;23.00;99.90;;;;;;4951995;29;20055;-79
2022/06/21 05:05:50;;;;;;;6.00;5.28;;;23.00;99.90;;;;;;4937137;29;20043;-79
2022/06/21 05:08:23;;;;;;;5.25;4.75;;;23.20;99.90;;;;;;4953660;29;20113;-79
2022/06/21 05:10:54;;;;;;;13.35;5.28;;;23.30;99.90;;;;;;4952664;29;20359;-79
2022/06/21 05:13:42;;;;;;;8.10;5.00;;;23.20;99.90;;;;;;4951055;29;20063;-79
2022/06/21 05:16:25;;;;;;;6.10;4.90;;;23.30;99.90;;;;;;4951778;29;20411;-79
2022/06/21 05:19:12;;;;;;;8.32;5.15;;;23.40;99.90;;;;;;4951523;29;20039;-79
2022/06/21 05:22:13;;;;;;;5.45;4.50;;;23.50;99.90;;;;;;4951121;29;20050;-79
2022/06/21 05:24:39;;;;;;;6.88;4.85;;;23.60;99.90;;;;;;4938673;29;20067;-78
2022/06/21 05:27:22;;;;;;;6.93;4.70;;;23.70;99.90;;;;;;4950058;28;20055;-79
2022/06/21 05:30:21;;;;;;;6.47;4.45;;;23.80;99.90;;;;;;4936844;29;20122;-79
2022/06/21 05:32:56;;;;;;;5.35;4.85;;;23.90;99.90;;;;;;4930528;29;20054;-79
2022/06/21 05:35:26;;;;;;;7.18;5.15;;;23.90;99.90;;;;;;4953000;29;20031;-79
2022/06/21 05:37:58;;;;;;;9.07;4.90;;;23.90;99.90;;;;;;4952982;28;20078;-79
2022/06/21 05:40:53;;;;;;;8.20;4.75;;;23.90;99.90;;;;;;4950632;28;20039;-79
2022/06/21 05:43:26;;;;;;;6.32;4.55;;;23.90;99.90;;;;;;4944348;29;20511;-79
2022/06/21 05:45:58;;;;;;;7.72;4.95;;;23.90;99.90;;;;;;4951439;29;20035;-79
2022/06/21 05:48:27;;;;;;;6.30;4.80;;;23.90;99.90;;;;;;4951801;29;20070;-79
2022/06/21 05:50:52;;;;;;;6.55;5.05;;;24.10;99.90;;;;;;4952954;28;20498;-80
2022/06/21 05:53:46;;;;;;;5.10;4.53;;;24.20;99.90;;;;;;4956721;28;20031;-79
2022/06/21 05:56:16;;;;;;;7.47;4.97;;;24.40;99.90;;;;;;4943472;28;20043;-79
2022/06/21 05:58:50;;;;;;;11.95;5.22;;;24.50;99.90;;;;;;4955870;29;20400;-79
2022/06/21 06:01:32;;;;;;;8.35;4.93;;;24.60;99.90;;;;;;4954699;29;20098;-79
2022/06/21 06:04:08;;;;;;;10.75;4.88;;;24.60;99.90;;;;;;4954605;29;20027;-79
2022/06/21 06:06:34;;;;;;;6.50;4.80;;;24.60;99.90;;;;;;4954778;29;20089;-80
2022/06/21 06:09:11;;;;;;;12.20;4.88;;;24.70;99.90;;;;;;4954964;29;20039;-79
2022/06/21 06:12:02;;;;;;;7.78;4.93;;;25.00;99.90;;;;;;4953199;28;20503;-79
2022/06/21 06:14:49;;;;;;;6.78;4.88;;;25.00;99.90;;;;;;4953306;29;20508;-79
2022/06/21 06:17:25;;;;;;;7.10;4.75;;;25.10;99.90;;;;;;4952921;29;20062;-79
2022/06/21 06:20:14;;;;;;;9.13;4.75;;;25.20;99.90;;;;;;4955689;29;20590;-79
2022/06/21 06:22:51;;;;;;;8.20;4.53;;;25.30;99.90;;;;;;4856365;29;20077;-79
2022/06/21 06:25:22;;;;;;;8.38;4.80;;;25.50;99.90;;;;;;4853241;29;20041;-79
2022/06/21 06:27:51;;;;;;;7.03;4.32;;;25.70;99.90;;;;;;4848276;29;20120;-79
2022/06/21 06:30:43;;;;;;;12.43;5.18;;;25.80;99.90;;;;;;4859368;29;20088;-79
2022/06/21 06:33:18;;;;;;;6.65;4.72;;;25.90;99.90;;;;;;4810863;29;20081;-79
2022/06/21 06:35:45;;;;;;;6.95;4.70;;;26.00;99.90;;;;;;4807777;29;20054;-78
2022/06/21 06:38:14;;;;;;;9.52;5.07;;;26.20;99.90;;;;;;4809227;29;20061;-78
2022/06/21 06:40:52;;;;;;;8.13;4.40;;;26.30;99.90;;;;;;4812722;29;20043;-78
2022/06/21 06:43:26;;;;;;;8.30;4.53;;;26.40;99.90;;;;;;4809726;29;20047;-78
2022/06/21 06:45:54;;;;;;;7.43;4.43;;;26.40;99.90;;;;;;4811744;29;20493;-79
2022/06/21 06:48:25;;;;;;;6.15;5.07;;;26.40;99.90;;;;;;4815396;29;20125;-78
2022/06/21 06:51:27;;;;;;;8.10;4.63;;;26.30;99.90;;;;;;4809174;29;20586;-78
2022/06/21 06:53:56;;;;;;;7.18;4.80;;;26.30;99.90;;;;;;4821892;29;20415;-79
2022/06/21 06:56:31;;;;;;;8.60;4.82;;;26.50;99.90;;;;;;4808175;29;20027;-79
2022/06/21 06:59:03;;;;;;;7.53;4.28;;;26.50;99.90;;;;;;4835574;29;20036;-79
2022/06/21 07:02:02;;;;;;;5.78;4.40;;;26.40;99.90;;;;;;4910874;29;20050;-79
2022/06/21 07:04:34;;;;;;;7.25;4.88;;;26.40;99.90;;;;;;4913525;29;20044;-78
2022/06/21 07:07:05;;;;;;;6.95;4.70;;;26.40;99.90;;;;;;4912194;29;20202;-79
2022/06/21 07:09:45;;;;;;;8.52;4.82;;;26.40;99.90;;;;;;4922788;29;20043;-78
2022/06/21 07:12:22;;;;;;;8.85;4.65;;;26.70;99.90;;;;;;4936522;29;20039;-79
2022/06/21 07:14:49;;;;;;;7.03;5.10;;;27.30;99.90;;;;;;4938935;29;20032;-78
2022/06/21 07:17:25;;;;;;;4.93;4.43;;;27.00;99.90;;;;;;4955845;29;20106;-79
2022/06/21 07:19:53;;;;;;;7.00;4.72;;;27.20;99.90;;;;;;4953640;29;20090;-79
2022/06/21 07:22:22;;;;;;;7.60;5.00;;;27.30;99.90;;;;;;4953448;29;20160;-79
2022/06/21 07:25:10;;;;;;;11.65;5.10;;;27.60;99.90;;;;;;4953472;29;20023;-78
2022/06/21 07:27:40;;;;;;;11.23;4.70;;;27.40;99.90;;;;;;4940447;29;20039;-78
2022/06/21 07:30:09;;;;;;;9.40;4.72;;;27.30;99.90;;;;;;4953801;29;20047;-79
2022/06/21 07:32:42;;;;;;;9.13;4.72;;;27.40;99.90;;;;;;4953205;28;20027;-78
2022/06/21 07:35:45;;;;;;;7.57;4.55;;;27.60;99.90;;;;;;4954699;28;20550;-78
2022/06/21 07:38:22;;;;;;;9.15;4.45;;;27.60;99.90;;;;;;4877611;29;20116;-79
2022/06/21 07:41:01;;;;;;;10.45;4.38;;;28.00;99.90;;;;;;4877181;29;20048;-78
2022/06/21 07:43:53;;;;;;;6.93;4.75;;;28.30;99.90;;;;;;4876696;29;20067;-78
2022/06/21 07:46:51;;;;;;;9.65;4.68;;;28.30;99.90;;;;;;4872630;29;20049;-79
2022/06/21 07:49:33;;;;;;;7.03;4.38;;;28.20;99.90;;;;;;4868715;29;20249;-79
2022/06/21 07:52:03;;;;;;;5.20;4.70;;;28.30;99.90;;;;;;4876580;29;20033;-79
2022/06/21 07:54:35;;;;;;;6.60;4.80;;;28.60;99.90;;;;;;4876396;29;20073;-79
2022/06/21 07:57:08;;;;;;;7.90;4.85;;;28.90;99.90;;;;;;4876697;29;20029;-79
2022/06/21 07:59:43;;;;;;;9.30;4.43;;;28.80;99.90;;;;;;4876382;29;20033;-79
2022/06/21 08:07:56;;;;;;;7.93;4.28;;;29.00;99.90;;;;;;4877270;29;20056;-79
2022/06/21 08:10:45;;;;;;;7.50;4.50;;;28.70;99.90;;;;;;4876625;29;20029;-79
2022/06/21 08:13:11;;;;;;;6.47;4.40;;;28.60;99.90;;;;;;4892388;29;20098;-79
2022/06/21 08:15:44;;;;;;;6.60;4.57;;;29.10;99.90;;;;;;4943794;29;20155;-78
2022/06/21 08:18:34;;;;;;;7.88;4.30;;;29.20;99.90;;;;;;4951228;28;20161;-79
2022/06/21 08:21:08;;;;;;;7.55;4.50;;;29.30;99.90;;;;;;4939464;29;20114;-78
2022/06/21 08:23:49;;;;;;;6.60;4.55;;;29.10;99.90;;;;;;4952364;29;20023;-78
2022/06/21 08:26:28;;;;;;;9.98;4.47;;;28.70;99.90;;;;;;4950369;29;20081;-79
2022/06/21 08:29:04;;;;;;;7.30;4.65;;;28.90;99.90;;;;;;4953455;29;20035;-78
2022/06/21 08:31:34;;;;;;;7.00;4.20;;;29.20;99.90;;;;;;4950504;28;20090;-79
2022/06/21 08:34:01;;;;;;;7.65;4.70;;;29.20;99.90;;;;;;4951262;28;20031;-79
2022/06/21 08:36:32;;;;;;;10.55;4.72;;;28.90;99.90;;;;;;4952321;28;20074;-79
2022/06/21 08:39:04;;;;;;;9.98;5.20;;;29.40;99.90;;;;;;4952282;29;20027;-79
2022/06/21 08:41:57;;;;;;;9.30;5.13;;;29.70;99.90;;;;;;4952301;29;20035;-79
2022/06/21 08:44:43;;;;;;;7.22;4.60;;;29.50;99.90;;;;;;4950750;29;20379;-79
2022/06/21 08:47:20;;;;;;;5.72;4.55;;;29.70;99.90;;;;;;4954203;29;20034;-79
2022/06/21 08:50:22;;;;;;;9.00;5.00;;;29.80;99.90;;;;;;4950966;29;20059;-79
2022/06/21 08:53:12;;;;;;;10.15;4.88;;;29.40;99.90;;;;;;4951884;29;20035;-79
2022/06/21 08:56:18;;;;;;;7.22;4.63;;;29.60;99.90;;;;;;4951749;29;20518;-79
2022/06/21 08:58:55;;;;;;;9.52;4.68;;;30.00;99.90;;;;;;4951087;29;20476;-79
2022/06/21 09:01:32;;;;;;;7.05;4.22;;;29.90;99.90;;;;;;4951954;29;20424;-79
2022/06/21 09:04:25;;;;;;;8.93;4.70;;;29.70;99.90;;;;;;4950173;28;20062;-79
2022/06/21 09:07:09;;;;;;;13.40;5.13;;;30.10;99.90;;;;;;4945224;29;20039;-79
2022/06/21 09:10:12;;;;;;;14.15;4.95;;;30.40;99.90;;;;;;4951665;29;20122;-79
2022/06/21 09:13:13;;;;;;;8.95;4.80;;;30.30;99.90;;;;;;4950408;28;20126;-79
2022/06/21 09:16:04;;;;;;;11.52;4.60;;;30.00;99.90;;;;;;4950720;29;20031;-79
2022/06/21 09:19:00;;;;;;;10.80;4.82;;;30.20;99.90;;;;;;4934461;29;20133;-79
2022/06/21 09:21:38;;;;;;;9.35;4.85;;;30.20;99.90;;;;;;4951990;29;20484;-79
2022/06/21 09:24:15;;;;;;;8.40;4.95;;;30.50;99.90;;;;;;4951573;28;20086;-78
2022/06/21 09:26:53;;;;;;;10.80;5.38;;;30.70;99.90;;;;;;4954660;29;20518;-79
2022/06/21 09:29:40;;;;;;;10.38;5.18;;;30.80;99.90;;;;;;4951864;28;20137;-79
2022/06/21 09:32:30;;;;;;;9.45;5.30;;;30.70;99.90;;;;;;4956459;29;20419;-79
2022/06/21 09:35:17;;;;;;;10.48;5.30;;;30.10;99.90;;;;;;4957181;29;20085;-79
2022/06/21 09:37:54;;;;;;;11.38;4.90;;;30.30;99.90;;;;;;4954697;29;20507;-79
2022/06/21 09:40:29;;;;;;;14.07;5.00;;;30.50;99.90;;;;;;4952471;29;20147;-79
2022/06/21 09:43:04;;;;;;;9.95;5.05;;;31.00;99.90;;;;;;4955106;29;20035;-79
2022/06/21 09:45:51;;;;;;;10.80;5.00;;;31.40;99.90;;;;;;4955282;28;20023;-79
2022/06/21 09:48:32;;;;;;;11.23;5.13;;;31.70;99.90;;;;;;4955336;28;20031;-80
2022/06/21 09:51:28;;;;;;;10.55;4.97;;;31.30;99.90;;;;;;4939273;28;20128;-79
2022/06/21 09:54:21;;;;;;;9.02;4.75;;;31.50;99.90;;;;;;4938100;28;20031;-80
2022/06/21 09:56:52;;;;;;;9.77;5.07;;;31.80;99.90;;;;;;4939812;29;20038;-81
2022/06/21 09:59:37;;;;;;;12.25;5.22;;;32.00;99.90;;;;;;4953437;28;20147;-80
2022/06/21 10:02:15;;;;;;;9.65;4.55;;;32.00;99.90;;;;;;4956606;29;20035;-80
2022/06/21 10:04:58;;;;;;;12.25;4.90;;;32.10;99.90;;;;;;4955281;28;20062;-80
2022/06/21 10:07:24;;;;;;;8.65;4.70;;;32.20;99.90;;;;;;4954633;29;20372;-80
2022/06/21 10:10:13;;;;;;;10.38;5.13;;;32.40;99.90;;;;;;4953938;29;20038;-81
2022/06/21 10:13:26;;;;;;;7.80;4.97;;;32.40;99.90;;;;;;4954508;29;20023;-80
2022/06/21 10:16:16;;;;;;;14.85;6.13;;;32.20;99.90;;;;;;4859699;29;20128;-80
2022/06/21 10:19:04;;;;;;;11.95;5.30;;;32.10;99.90;;;;;;4856949;29;20071;-80
2022/06/21 10:21:56;;;;;;;10.88;5.10;;;31.80;99.90;;;;;;4849418;29;20086;-80
2022/06/21 10:24:34;;;;;;;11.32;4.93;;;31.80;99.90;;;;;;4850613;29;20112;-80
2022/06/21 10:27:25;;;;;;;14.32;5.50;;;32.60;99.90;;;;;;4846354;29;20037;-80
2022/06/21 10:30:05;;;;;;;11.77;5.07;;;32.60;99.90;;;;;;4859497;29;20042;-80
2022/06/21 10:32:45;;;;;;;10.60;4.68;;;32.80;99.90;;;;;;4859648;29;20033;-80
2022/06/21 10:35:54;;;;;;;11.43;5.38;;;32.80;99.90;;;;;;4845722;29;20110;-80
2022/06/21 10:38:50;;;;;;;8.80;5.00;;;32.50;99.90;;;;;;4846238;29;20041;-80
2022/06/21 10:41:34;;;;;;;10.65;5.07;;;32.50;99.90;;;;;;4858728;29;20048;-80
2022/06/21 10:44:34;;;;;;;16.75;5.32;;;32.80;99.90;;;;;;4845474;29;20136;-80
2022/06/21 10:47:10;;;;;;;13.55;5.28;;;33.10;99.90;;;;;;4854153;29;20106;-80
2022/06/21 10:50:02;;;;;;;13.07;4.97;;;33.10;99.90;;;;;;4881136;29;20464;-80
2022/06/21 10:52:40;;;;;;;13.85;5.40;;;33.40;99.90;;;;;;4935069;29;20087;-81
2022/06/21 10:55:45;;;;;;;10.80;5.20;;;33.50;99.90;;;;;;4933728;29;20488;-80
2022/06/21 10:58:17;;;;;;;11.88;4.90;;;33.40;99.90;;;;;;4934908;29;20040;-79
2022/06/21 11:04:04;;;;;;;12.10;4.80;;;33.80;99.90;;;;;;4935130;29;20499;-82
2022/06/21 11:06:50;;;;;;;12.63;5.18;;;33.70;99.90;;;;;;4935231;29;20028;-79
2022/06/21 11:09:24;;;;;;;14.65;4.93;;;33.70;99.90;;;;;;4933355;29;20023;-79
2022/06/21 11:11:55;;;;;;;16.55;5.80;;;33.90;99.90;;;;;;4920081;29;20052;-80
2022/06/21 11:14:50;;;;;;;13.38;4.63;;;33.90;99.90;;;;;;4935848;29;20093;-79
2022/06/21 11:17:20;;;;;;;10.38;4.68;;;34.60;99.90;;;;;;4933102;29;20028;-79
2022/06/21 11:20:11;;;;;;;13.52;5.13;;;34.20;99.90;;;;;;4933588;29;20086;-79
2022/06/21 11:22:52;;;;;;;16.90;4.93;;;33.80;99.90;;;;;;4899618;29;20048;-80
2022/06/21 11:25:29;;;;;;;9.77;4.40;;;33.70;99.90;;;;;;4899981;29;20052;-79
2022/06/21 11:28:21;;;;;;;17.27;5.00;;;33.70;99.90;;;;;;4899489;29;20417;-80
2022/06/21 11:31:20;;;;;;;16.27;5.00;;;33.90;99.90;;;;;;4899538;29;20040;-79
2022/06/21 11:33:51;;;;;;;13.00;4.53;;;34.20;99.90;;;;;;4899745;29;20051;-80
2022/06/21 11:36:41;;;;;;;16.67;5.40;;;34.60;99.90;;;;;;4899507;29;20497;-79
2022/06/21 11:39:33;;;;;;;13.95;5.13;;;34.30;99.90;;;;;;4901792;29;20037;-80
2022/06/21 11:42:05;;;;;;;17.33;5.05;;;34.80;99.90;;;;;;4883420;29;20064;-80
2022/06/21 11:44:42;;;;;;;13.65;4.90;;;35.10;99.90;;;;;;4897604;29;20035;-79
2022/06/21 11:47:19;;;;;;;18.65;4.57;;;35.60;99.90;;;;;;4899677;29;20045;-80
2022/06/21 11:49:50;;;;;;;17.58;5.10;;;34.60;99.90;;;;;;4899348;29;20111;-80
2022/06/21 11:52:45;;;;;;;12.95;4.93;;;34.50;99.90;;;;;;4882298;29;20051;-80
2022/06/21 11:55:28;;;;;;;14.45;5.32;;;34.90;99.90;;;;;;4903831;29;20044;-80
2022/06/21 11:58:23;;;;;;;14.07;4.82;;;35.00;99.90;;;;;;4905279;29;20029;-80
2022/06/21 12:01:11;;;;;;;19.38;5.38;;;35.10;99.90;;;;;;4923818;29;20564;-80
2022/06/21 12:03:55;;;;;;;15.80;6.20;;;35.10;99.90;;;;;;4933581;29;20039;-80
2022/06/21 12:06:36;;;;;;;17.30;5.32;;;35.30;99.90;;;;;;4933243;29;20031;-80
2022/06/21 12:09:15;;;;;;;13.80;5.68;;;35.30;99.90;;;;;;4932350;29;20038;-80
2022/06/21 12:11:47;;;;;;;13.35;5.95;;;34.80;99.90;;;;;;4932665;29;20079;-80
2022/06/21 12:14:57;;;;;;;15.02;5.55;;;35.80;99.90;;;;;;4935573;29;20520;-80
2022/06/21 12:17:33;;;;;;;12.38;5.38;;;36.00;99.90;;;;;;4873225;29;20447;-80
2022/06/21 12:20:03;;;;;;;14.93;5.10;;;36.40;99.90;;;;;;4871042;29;20041;-80
2022/06/21 12:22:37;;;;;;;18.88;5.68;;;37.20;99.90;;;;;;4861653;29;20056;-80
2022/06/21 12:25:04;;;;;;;15.30;5.72;;;36.00;99.90;;;;;;4860493;29;20046;-80
2022/06/21 12:27:29;;;;;;;14.93;6.00;;;36.60;99.90;;;;;;4860090;29;20507;-80
2022/06/21 12:30:25;;;;;;;14.30;5.35;;;36.70;99.90;;;;;;4860147;29;20043;-80
2022/06/21 12:32:59;;;;;;;11.38;4.88;;;36.10;99.90;;;;;;4858670;29;20636;-80
2022/06/21 12:35:43;;;;;;;16.42;5.70;;;35.60;99.90;;;;;;4859728;29;20033;-80
2022/06/21 12:38:13;;;;;;;12.02;5.50;;;36.00;99.90;;;;;;4861972;29;20043;-80
2022/06/21 12:40:45;;;;;;;12.60;5.60;;;38.40;99.90;;;;;;4871750;29;20032;-80
2022/06/21 12:43:29;;;;;;;12.43;6.07;;;37.20;99.90;;;;;;4864001;29;20041;-80
2022/06/21 12:45:55;;;;;;;17.08;6.40;;;37.10;99.90;;;;;;4859794;29;20037;-80
2022/06/21 12:48:49;;;;;;;13.45;5.57;;;35.90;99.90;;;;;;4859905;29;20052;-80
2022/06/21 12:51:53;;;;;;;13.40;5.93;;;36.60;99.90;;;;;;4889465;29;20090;-80
2022/06/21 12:54:37;;;;;;;13.55;5.50;;;36.40;99.90;;;;;;4920290;29;20028;-80
2022/06/21 12:57:15;;;;;;;15.48;5.97;;;37.80;99.90;;;;;;4918850;29;20029;-80
2022/06/21 12:59:50;;;;;;;11.68;5.50;;;37.00;99.90;;;;;;4932476;29;20039;-80
2022/06/21 13:02:21;;;;;;;12.30;5.70;;;35.10;99.90;;;;;;4931090;29;20043;-80
2022/06/21 13:04:51;;;;;;;16.08;5.63;;;34.60;99.90;;;;;;4931526;29;20043;-80
2022/06/21 13:07:44;;;;;;;11.77;5.45;;;34.70;99.90;;;;;;4932711;29;20063;-80
2022/06/21 13:10:22;;;;;;;13.90;5.95;;;34.70;99.90;;;;;;4931870;29;20028;-80
2022/06/21 13:13:05;;;;;;;12.85;5.95;;;33.90;99.90;;;;;;4932885;29;20127;-80
2022/06/21 13:15:40;;;;;;;13.07;5.93;;;34.80;99.90;;;;;;4931140;29;20024;-80
2022/06/21 13:18:42;;;;;;;21.27;6.05;;;34.60;99.90;;;;;;4932663;29;20067;-80
2022/06/21 13:21:19;;;;;;;12.60;5.72;;;34.70;99.90;;;;;;4918978;29;20028;-79
2022/06/21 13:24:21;;;;;;;14.13;5.22;;;34.10;99.90;;;;;;4932511;29;20044;-80
2022/06/21 13:26:46;;;;;;;11.57;5.45;;;33.90;99.90;;;;;;4917577;29;20020;-80
2022/06/21 13:29:32;;;;;;;13.57;5.35;;;33.20;99.90;;;;;;4934823;29;20469;-80
2022/06/21 13:32:06;;;;;;;14.63;5.75;;;32.90;99.90;;;;;;4932450;29;20050;-80
2022/06/21 13:34:48;;;;;;;12.32;5.43;;;32.90;99.90;;;;;;4931954;29;20523;-80
2022/06/21 13:37:31;;;;;;;12.77;5.50;;;32.70;99.90;;;;;;4932115;29;20568;-80
2022/06/21 13:40:02;;;;;;;13.15;5.43;;;32.50;99.90;;;;;;4932588;29;20509;-79
2022/06/21 13:42:41;;;;;;;7.55;4.10;;;32.40;99.90;;;;;;4932368;29;20122;-79
2022/06/21 13:45:32;;;;;;;11.32;5.55;;;32.10;99.90;;;;;;4932286;29;20492;-79
2022/06/21 13:48:14;;;;;;;13.32;5.70;;;32.20;99.90;;;;;;4918305;29;20028;-79
2022/06/21 13:50:59;;;;;;;12.00;5.10;;;32.70;99.90;;;;;;4932487;29;20070;-80
2022/06/21 13:53:45;;;;;;;13.40;5.47;;;32.30;99.90;;;;;;4930739;29;20567;-80